createdAt,value
2017-11-22T00:00:23.489Z,0.50
2017-11-22T00:02:51.178Z,0.67
2017-11-22T00:05:18.951Z,0.43
2017-11-22T00:07:46.745Z,0.97
2017-11-22T00:10:14.425Z,0.60
2017-11-22T00:12:42.152Z,1.00
2017-11-22T00:15:09.835Z,0.70
2017-11-22T00:17:37.575Z,0.80
2017-11-22T00:20:05.675Z,0.50
2017-11-22T00:22:33.385Z,0.70
2017-11-22T00:25:01.111Z,0.70
2017-11-22T00:27:28.844Z,0.80
2017-11-22T00:29:56.579Z,0.90
2017-11-22T00:32:24.300Z,0.60
2017-11-22T00:34:51.990Z,0.70
2017-11-22T00:37:19.738Z,0.70
2017-11-22T00:39:47.550Z,0.77
2017-11-22T00:42:15.271Z,1.20
2017-11-22T00:44:43.016Z,1.27
2017-11-22T00:47:10.737Z,0.63
2017-11-22T00:49:38.423Z,0.60
2017-11-22T00:52:06.136Z,1.57
2017-11-22T00:54:33.875Z,0.77
2017-11-22T00:57:01.638Z,0.80
2017-11-22T00:59:29.341Z,0.77
2017-11-22T01:01:57.087Z,1.10
2017-11-22T01:04:24.752Z,1.07
2017-11-22T01:06:52.497Z,0.90
2017-11-22T01:09:20.212Z,0.80
2017-11-22T01:11:47.965Z,0.60
2017-11-22T01:14:15.780Z,1.00
2017-11-22T01:16:43.459Z,0.70
2017-11-22T01:19:11.218Z,0.63
2017-11-22T01:21:38.906Z,0.83
2017-11-22T01:24:06.597Z,1.10
2017-11-22T01:26:34.348Z,0.97
2017-11-22T01:29:02.088Z,1.87
2017-11-22T01:31:29.826Z,0.93
2017-11-22T01:33:57.515Z,0.77
2017-11-22T01:36:25.236Z,0.80
2017-11-22T01:38:53.040Z,1.20
2017-11-22T01:41:20.773Z,0.77
2017-11-22T01:43:48.652Z,1.97
2017-11-22T01:46:16.391Z,1.07
2017-11-22T01:48:44.187Z,0.83
2017-11-22T01:51:11.885Z,1.00
2017-11-22T01:53:39.595Z,0.93
2017-11-22T01:56:07.333Z,1.00
2017-11-22T01:58:35.009Z,0.83
2017-11-22T02:01:02.746Z,1.77
2017-11-22T02:03:30.449Z,0.83
2017-11-22T02:05:58.230Z,0.83
2017-11-22T02:08:25.964Z,1.13
2017-11-22T02:10:53.729Z,0.77
2017-11-22T02:13:21.406Z,0.80
2017-11-22T02:15:49.285Z,0.87
2017-11-22T02:18:16.950Z,1.40
2017-11-22T02:20:44.666Z,1.30
2017-11-22T02:23:12.348Z,1.07
2017-11-22T02:25:40.099Z,1.10
2017-11-22T02:28:07.825Z,1.10
2017-11-22T02:30:35.525Z,1.07
2017-11-22T02:33:03.313Z,0.90
2017-11-22T02:35:32.188Z,0.80
2017-11-22T02:37:59.938Z,1.07
2017-11-22T02:40:27.667Z,1.00
2017-11-22T02:42:55.454Z,0.87
2017-11-22T02:45:23.432Z,1.30
2017-11-22T02:47:51.144Z,0.97
2017-11-22T02:50:18.879Z,0.80
2017-11-22T02:52:46.682Z,0.87
2017-11-22T02:55:14.418Z,0.63
2017-11-22T02:57:42.176Z,0.70
2017-11-22T03:00:09.920Z,1.23
2017-11-22T03:02:37.608Z,1.20
2017-11-22T03:05:05.361Z,0.73
2017-11-22T03:07:33.066Z,1.33
2017-11-22T03:10:00.780Z,1.00
2017-11-22T03:12:28.451Z,0.50
2017-11-22T03:14:56.208Z,0.67
2017-11-22T03:17:24.033Z,0.70
2017-11-22T03:22:25.541Z,0.57
2017-11-22T03:24:53.283Z,0.80
2017-11-22T03:27:21.050Z,0.70
2017-11-22T03:29:48.754Z,0.57
2017-11-22T03:32:16.631Z,1.20
2017-11-22T03:34:44.354Z,0.73
2017-11-22T03:37:12.117Z,0.70
2017-11-22T03:39:39.873Z,0.53
2017-11-22T03:42:07.562Z,0.50
2017-11-22T03:44:35.384Z,0.90
2017-11-22T03:47:03.127Z,0.70
2017-11-22T03:49:31.648Z,0.70
2017-11-22T03:52:04.809Z,0.70
2017-11-22T03:54:32.523Z,0.50
2017-11-22T03:57:00.233Z,0.50
2017-11-22T03:59:28.003Z,0.83
2017-11-22T04:01:58.574Z,0.50
2017-11-22T04:04:28.137Z,0.93
2017-11-22T04:06:56.004Z,0.53
2017-11-22T04:09:23.733Z,1.30
2017-11-22T04:11:51.409Z,0.70
2017-11-22T04:14:19.128Z,1.10
2017-11-22T04:16:46.926Z,1.90
2017-11-22T04:19:20.228Z,0.80
2017-11-22T04:21:47.965Z,0.50
2017-11-22T04:24:15.647Z,1.07
2017-11-22T04:26:43.379Z,0.80
2017-11-22T04:29:11.118Z,1.00
2017-11-22T04:31:38.799Z,0.90
2017-11-22T04:34:06.844Z,0.60
2017-11-22T04:36:34.688Z,0.90
2017-11-22T04:39:02.503Z,0.97
2017-11-22T04:41:30.215Z,0.90
2017-11-22T04:43:58.298Z,0.93
2017-11-22T04:46:26.104Z,1.20
2017-11-22T04:48:53.850Z,1.00
2017-11-22T04:51:21.543Z,0.37
2017-11-22T04:53:49.349Z,1.13
2017-11-22T04:56:17.108Z,0.90
2017-11-22T04:58:44.857Z,1.20
2017-11-22T05:01:12.655Z,0.97
2017-11-22T05:03:40.384Z,1.13
2017-11-22T05:06:08.108Z,1.20
2017-11-22T05:08:35.966Z,0.90
2017-11-22T05:11:03.755Z,1.10
2017-11-22T05:13:31.442Z,1.20
2017-11-22T05:15:59.173Z,1.10
2017-11-22T05:18:26.948Z,1.40
2017-11-22T05:20:54.652Z,0.93
2017-11-22T05:23:22.352Z,0.90
2017-11-22T05:25:50.089Z,1.03
2017-11-22T05:28:17.891Z,1.13
2017-11-22T05:30:45.617Z,1.20
2017-11-22T05:33:13.402Z,1.60
2017-11-22T05:35:41.081Z,1.70
2017-11-22T05:38:08.839Z,1.50
2017-11-22T05:40:36.548Z,1.80
2017-11-22T05:43:04.354Z,1.53
2017-11-22T05:45:32.027Z,1.33
2017-11-22T05:47:59.716Z,3.57
2017-11-22T05:50:28.875Z,5.23
2017-11-22T05:52:56.626Z,3.57
2017-11-22T05:55:24.324Z,3.13
2017-11-22T05:57:52.028Z,2.70
2017-11-22T06:00:19.791Z,2.73
2017-11-22T06:02:47.497Z,9.33
2017-11-22T06:05:15.185Z,14.87
2017-11-22T06:07:43.376Z,9.97
2017-11-22T06:10:11.167Z,7.73
2017-11-22T06:12:38.912Z,5.13
2017-11-22T06:15:06.603Z,6.13
2017-11-22T06:17:34.324Z,6.30
2017-11-22T06:20:02.116Z,9.13
2017-11-22T06:22:29.818Z,7.00
2017-11-22T06:24:57.571Z,7.63
2017-11-22T06:27:25.280Z,8.30
2017-11-22T06:29:57.827Z,7.27
2017-11-22T06:32:25.722Z,6.93
2017-11-22T06:34:53.475Z,6.70
2017-11-22T06:37:21.168Z,5.23
2017-11-22T06:39:48.886Z,8.53
2017-11-22T06:42:16.631Z,5.90
2017-11-22T06:44:44.382Z,5.10
2017-11-22T06:47:12.106Z,3.90
2017-11-22T06:49:39.896Z,4.20
2017-11-22T06:52:07.661Z,3.63
2017-11-22T06:54:35.359Z,3.73
2017-11-22T06:57:03.128Z,4.87
2017-11-22T06:59:30.846Z,4.50
2017-11-22T07:01:59.474Z,3.70
2017-11-22T07:04:27.233Z,2.90
2017-11-22T07:06:54.933Z,2.20
2017-11-22T07:09:22.781Z,1.40
2017-11-22T07:11:51.396Z,2.43
2017-11-22T07:14:19.144Z,2.80
2017-11-22T07:16:52.381Z,2.23
2017-11-22T07:19:20.090Z,2.50
2017-11-22T07:21:49.007Z,2.70
2017-11-22T07:24:16.720Z,3.57
2017-11-22T07:26:44.562Z,1.63
2017-11-22T07:29:12.448Z,1.97
2017-11-22T07:31:40.180Z,2.63
2017-11-22T07:34:07.890Z,1.40
2017-11-22T07:36:41.251Z,2.00
2017-11-22T07:39:08.949Z,2.93
2017-11-22T07:41:36.745Z,3.00
2017-11-22T07:44:04.447Z,3.20
2017-11-22T07:46:32.259Z,2.83
2017-11-22T07:49:00.054Z,3.27
2017-11-22T07:51:34.121Z,3.00
2017-11-22T07:54:01.924Z,2.97
2017-11-22T07:56:29.615Z,3.37
2017-11-22T07:58:57.356Z,3.17
2017-11-22T08:01:26.351Z,3.73
2017-11-22T08:03:59.737Z,3.53
2017-11-22T08:06:27.435Z,4.70
2017-11-22T08:08:55.138Z,4.63
2017-11-22T08:11:22.901Z,5.17
2017-11-22T08:13:50.651Z,5.60
2017-11-22T08:16:18.324Z,5.10
2017-11-22T08:18:46.364Z,6.80
2017-11-22T08:21:14.114Z,9.90
2017-11-22T08:23:41.846Z,12.53
2017-11-22T08:26:09.587Z,11.00
2017-11-22T08:28:37.359Z,8.53
2017-11-22T08:31:05.116Z,5.53
2017-11-22T08:33:32.869Z,4.30
2017-11-22T08:36:00.575Z,4.80
2017-11-22T08:38:28.247Z,4.60
2017-11-22T08:40:56.104Z,5.40
2017-11-22T08:43:29.487Z,5.03
2017-11-22T08:45:57.208Z,6.70
2017-11-22T08:48:25.331Z,9.20
2017-11-22T08:50:53.051Z,3.53
2017-11-22T08:53:20.749Z,4.50
2017-11-22T08:55:54.102Z,4.10
2017-11-22T08:58:22.001Z,3.60
2017-11-22T09:00:49.747Z,3.67
2017-11-22T09:03:17.501Z,2.87
2017-11-22T09:05:49.082Z,3.03
2017-11-22T09:08:16.804Z,4.00
2017-11-22T09:10:44.497Z,3.50
2017-11-22T09:13:20.527Z,2.83
2017-11-22T09:15:48.275Z,3.50
2017-11-22T09:18:21.598Z,4.00
2017-11-22T09:20:49.396Z,3.33
2017-11-22T09:23:17.139Z,4.47
2017-11-22T09:25:44.874Z,5.37
2017-11-22T09:28:12.624Z,4.67
2017-11-22T09:30:46.113Z,3.00
2017-11-22T09:33:13.792Z,3.60
2017-11-22T09:35:41.567Z,2.43
2017-11-22T09:38:09.317Z,3.00
2017-11-22T09:40:37.005Z,5.33
2017-11-22T09:43:04.795Z,4.80
2017-11-22T09:45:32.579Z,3.97
2017-11-22T09:48:00.285Z,4.13
2017-11-22T09:50:28.267Z,3.40
2017-11-22T09:52:55.950Z,3.87
2017-11-22T09:55:23.658Z,4.20
2017-11-22T09:57:51.409Z,3.83
2017-11-22T10:00:19.158Z,3.70
2017-11-22T10:02:46.860Z,2.80
2017-11-22T10:05:14.595Z,3.33
2017-11-22T10:07:42.340Z,7.37
2017-11-22T10:10:10.097Z,5.20
2017-11-22T10:12:37.760Z,4.00
2017-11-22T10:15:05.453Z,4.70
2017-11-22T10:17:34.168Z,5.30
2017-11-22T10:20:04.833Z,6.10
2017-11-22T10:22:50.281Z,4.93
2017-11-22T10:25:20.008Z,4.53
2017-11-22T10:27:47.947Z,4.90
2017-11-22T10:30:15.737Z,5.57
2017-11-22T10:32:49.110Z,4.33
2017-11-22T10:35:16.943Z,4.63
2017-11-22T10:37:44.698Z,3.80
2017-11-22T10:40:12.449Z,3.93
2017-11-22T10:42:40.198Z,3.80
2017-11-22T10:45:07.917Z,2.87
2017-11-22T10:47:35.666Z,6.20
2017-11-22T10:50:03.649Z,5.37
2017-11-22T10:52:31.529Z,5.00
2017-11-22T10:54:59.323Z,3.40
2017-11-22T10:57:27.070Z,3.27
2017-11-22T10:59:54.838Z,2.63
2017-11-22T11:02:22.556Z,5.20
2017-11-22T11:04:51.264Z,3.00
2017-11-22T11:07:18.989Z,2.13
2017-11-22T11:09:46.768Z,2.30
2017-11-22T11:12:14.662Z,2.73
2017-11-22T11:14:42.383Z,6.00
2017-11-22T11:17:11.212Z,4.63
2017-11-22T11:19:39.274Z,3.90
2017-11-22T11:22:07.032Z,3.90
2017-11-22T11:24:34.872Z,3.30
2017-11-22T11:27:02.596Z,4.50
2017-11-22T11:29:30.363Z,4.33
2017-11-22T11:31:58.077Z,4.00
2017-11-22T11:34:26.129Z,3.13
2017-11-22T11:36:54.203Z,3.27
2017-11-22T11:39:22.087Z,3.00
2017-11-22T11:41:49.954Z,3.40
2017-11-22T11:44:17.851Z,3.47
2017-11-22T11:46:45.738Z,3.47
2017-11-22T11:49:13.525Z,3.47
2017-11-22T11:51:42.331Z,3.87
2017-11-22T11:54:10.120Z,3.40
2017-11-22T11:56:37.905Z,3.33
2017-11-22T11:59:05.594Z,3.00
2017-11-22T12:01:33.346Z,3.47
2017-11-22T12:04:01.129Z,2.83
2017-11-22T12:06:28.861Z,2.70
2017-11-22T12:08:56.567Z,2.27
2017-11-22T12:11:24.415Z,3.20
2017-11-22T12:13:52.114Z,3.43
2017-11-22T12:16:19.880Z,2.70
2017-11-22T12:18:47.596Z,2.90
2017-11-22T12:21:15.374Z,2.63
2017-11-22T12:23:43.093Z,2.33
2017-11-22T12:26:10.839Z,2.70
2017-11-22T12:28:38.612Z,2.30
2017-11-22T12:31:06.343Z,2.13
2017-11-22T12:33:34.289Z,2.83
2017-11-22T12:36:02.039Z,2.40
2017-11-22T12:38:29.782Z,2.03
2017-11-22T12:40:57.466Z,2.80
2017-11-22T12:43:25.156Z,2.57
2017-11-22T12:45:53.003Z,3.20
2017-11-22T12:48:20.760Z,3.07
2017-11-22T12:50:49.035Z,9.80
2017-11-22T12:53:16.738Z,4.10
2017-11-22T12:55:45.203Z,4.77
2017-11-22T12:58:12.867Z,4.70
2017-11-22T13:00:40.635Z,4.37
2017-11-22T13:03:08.398Z,3.80
2017-11-22T13:05:36.148Z,2.83
2017-11-22T13:08:03.947Z,3.20
2017-11-22T13:10:34.639Z,4.40
2017-11-22T13:13:03.662Z,4.00
2017-11-22T13:15:31.502Z,3.30
2017-11-22T13:17:59.282Z,4.50
2017-11-22T13:20:27.053Z,3.00
2017-11-22T13:22:54.713Z,3.30
2017-11-22T13:25:22.479Z,3.10
2017-11-22T13:27:50.248Z,3.57
2017-11-22T13:30:18.700Z,3.57
2017-11-22T13:32:46.586Z,3.80
2017-11-22T13:35:14.343Z,4.50
2017-11-22T13:37:42.127Z,4.30
2017-11-22T13:40:09.924Z,4.77
2017-11-22T13:42:40.557Z,5.10
2017-11-22T13:45:09.188Z,10.67
2017-11-22T13:47:36.952Z,6.13
2017-11-22T13:50:04.757Z,5.60
2017-11-22T13:52:32.571Z,8.60
2017-11-22T13:55:01.578Z,9.10
2017-11-22T13:57:29.347Z,9.73
2017-11-22T13:59:57.260Z,7.03
2017-11-22T14:02:24.999Z,6.43
2017-11-22T14:04:52.766Z,6.67
2017-11-22T14:07:20.629Z,5.77
2017-11-22T14:09:48.395Z,5.00
2017-11-22T14:12:16.233Z,5.63
2017-11-22T14:14:44.005Z,6.00
2017-11-22T14:17:11.845Z,5.30
2017-11-22T14:19:39.656Z,5.30
2017-11-22T14:22:07.458Z,5.07
2017-11-22T14:24:35.160Z,4.93
2017-11-22T14:27:02.962Z,5.23
2017-11-22T14:29:30.755Z,5.80
2017-11-22T14:31:58.496Z,4.60
2017-11-22T14:34:26.278Z,6.47
2017-11-22T14:36:54.242Z,6.57
2017-11-22T14:39:22.061Z,8.40
2017-11-22T14:41:49.873Z,7.30
2017-11-22T14:44:17.701Z,10.87
2017-11-22T14:46:45.518Z,14.73
2017-11-22T14:49:13.301Z,12.17
2017-11-22T14:51:41.287Z,14.60
2017-11-22T14:54:09.387Z,13.80
2017-11-22T14:56:37.193Z,12.20
2017-11-22T14:59:05.093Z,11.80
2017-11-22T15:01:33.087Z,13.80
2017-11-22T15:04:00.990Z,13.20
2017-11-22T15:06:28.803Z,11.43
2017-11-22T15:08:56.614Z,14.83
2017-11-22T15:11:24.561Z,14.17
2017-11-22T15:13:52.338Z,12.33
2017-11-22T15:16:20.238Z,11.30
2017-11-22T15:18:48.033Z,12.87
2017-11-22T15:21:15.847Z,11.67
2017-11-22T15:23:43.673Z,12.87
2017-11-22T15:26:11.630Z,9.27
2017-11-22T15:28:39.392Z,13.07
2017-11-22T15:31:07.218Z,9.30
2017-11-22T15:33:35.097Z,13.63
2017-11-22T15:36:02.970Z,10.90
2017-11-22T15:38:30.746Z,12.40
2017-11-22T15:40:58.502Z,16.77
2017-11-22T15:43:26.291Z,15.70
2017-11-22T15:45:54.042Z,16.20
2017-11-22T15:48:21.926Z,11.70
2017-11-22T15:50:49.648Z,15.67
2017-11-22T15:53:17.395Z,10.90
2017-11-22T15:55:45.121Z,12.50
2017-11-22T15:58:12.877Z,9.47
2017-11-22T16:00:40.704Z,7.10
2017-11-22T16:03:08.395Z,7.70
2017-11-22T16:05:36.124Z,11.67
2017-11-22T16:08:03.864Z,9.40
2017-11-22T16:10:31.530Z,7.33
2017-11-22T16:12:59.349Z,8.13
2017-11-22T16:15:27.168Z,11.43
2017-11-22T16:17:54.967Z,9.53
2017-11-22T16:20:22.738Z,9.60
2017-11-22T16:22:50.544Z,14.20
2017-11-22T16:25:18.393Z,13.43
2017-11-22T16:27:46.140Z,14.47
2017-11-22T16:30:14.079Z,15.50
2017-11-22T16:32:42.697Z,15.60
2017-11-22T16:35:10.514Z,14.37
2017-11-22T16:37:38.398Z,11.53
2017-11-22T16:40:06.178Z,11.67
2017-11-22T16:42:33.928Z,11.27
2017-11-22T16:45:01.704Z,12.03
2017-11-22T16:47:29.548Z,14.97
2017-11-22T16:49:57.281Z,12.93
2017-11-22T16:52:25.150Z,14.00
2017-11-22T16:54:52.937Z,14.00
2017-11-22T16:57:20.729Z,13.90
2017-11-22T16:59:48.473Z,15.63
2017-11-22T17:02:16.291Z,29.37
2017-11-22T17:04:44.020Z,19.73
2017-11-22T17:07:11.835Z,14.10
2017-11-22T17:09:39.711Z,7.67
2017-11-22T17:12:07.551Z,6.40
2017-11-22T17:14:35.340Z,7.20
2017-11-22T17:17:03.112Z,7.50
2017-11-22T17:19:30.953Z,8.80
2017-11-22T17:21:58.715Z,6.10
2017-11-22T17:24:26.590Z,7.90
2017-11-22T17:26:54.408Z,10.17
2017-11-22T17:29:22.231Z,25.10
2017-11-22T17:31:50.003Z,26.77
2017-11-22T17:34:17.762Z,7.27
2017-11-22T17:36:45.498Z,4.70
2017-11-22T17:39:13.328Z,5.13
2017-11-22T17:41:41.965Z,11.20
2017-11-22T17:44:09.813Z,11.00
2017-11-22T17:46:37.510Z,17.87
2017-11-22T17:49:05.282Z,15.10
2017-11-22T17:51:33.044Z,20.13
2017-11-22T17:54:00.800Z,14.93
2017-11-22T17:56:28.561Z,12.70
2017-11-22T17:58:56.337Z,12.60
2017-11-22T18:01:24.124Z,10.13
2017-11-22T18:03:52.076Z,9.13
2017-11-22T18:06:19.987Z,10.70
2017-11-22T18:08:47.902Z,13.47
2017-11-22T18:11:15.779Z,31.93
2017-11-22T18:13:43.558Z,22.27
2017-11-22T18:16:11.376Z,26.43
2017-11-22T18:18:39.164Z,43.30
2017-11-22T18:21:06.937Z,13.40
2017-11-22T18:23:34.891Z,10.60
2017-11-22T18:26:02.971Z,9.73
2017-11-22T18:28:31.720Z,7.17
2017-11-22T18:30:59.720Z,8.53
2017-11-22T18:33:27.556Z,6.90
2017-11-22T18:35:55.375Z,8.83
2017-11-22T18:38:23.308Z,8.63
2017-11-22T18:40:51.175Z,8.00
2017-11-22T18:43:18.927Z,8.90
2017-11-22T18:45:46.801Z,9.27
2017-11-22T18:48:14.685Z,10.43
2017-11-22T18:50:43.474Z,9.90
2017-11-22T18:53:12.801Z,9.27
2017-11-22T18:55:43.331Z,8.70
2017-11-22T18:58:13.093Z,8.40
2017-11-22T19:00:41.055Z,7.60
2017-11-22T19:03:18.388Z,12.73
2017-11-22T19:05:48.862Z,9.13
2017-11-22T19:08:17.513Z,11.40
2017-11-22T19:10:45.538Z,10.00
2017-11-22T19:13:15.269Z,14.30
2017-11-22T19:15:43.137Z,14.03
2017-11-22T19:18:10.863Z,13.10
2017-11-22T19:20:38.663Z,12.13
2017-11-22T19:23:07.528Z,12.17
2017-11-22T19:25:35.369Z,15.50
2017-11-22T19:28:03.552Z,13.07
2017-11-22T19:30:31.410Z,11.83
2017-11-22T19:32:59.234Z,12.93
2017-11-22T19:35:27.407Z,11.00
2017-11-22T19:37:57.237Z,11.80
2017-11-22T19:40:25.041Z,10.90
2017-11-22T19:42:52.876Z,9.53
2017-11-22T19:45:20.633Z,8.57
2017-11-22T19:47:50.042Z,8.07
2017-11-22T19:50:18.320Z,7.57
2017-11-22T19:52:46.220Z,8.30
2017-11-22T19:55:13.985Z,9.50
2017-11-22T19:57:41.877Z,10.60
2017-11-22T20:00:09.693Z,13.20
2017-11-22T20:02:37.453Z,12.67
2017-11-22T20:05:06.319Z,12.97
2017-11-22T20:07:45.820Z,12.60
2017-11-22T20:10:13.657Z,12.40
2017-11-22T20:12:41.799Z,9.93
2017-11-22T20:15:09.873Z,12.50
2017-11-22T20:17:37.740Z,18.07
2017-11-22T20:20:06.383Z,22.37
2017-11-22T20:22:34.291Z,15.73
2017-11-22T20:25:02.119Z,15.80
2017-11-22T20:27:29.924Z,13.47
2017-11-22T20:29:57.713Z,14.70
2017-11-22T20:32:25.407Z,14.30
2017-11-22T20:34:53.231Z,16.53
2017-11-22T20:37:21.029Z,11.80
2017-11-22T20:39:48.766Z,10.40
2017-11-22T20:42:16.522Z,9.17
2017-11-22T20:44:44.236Z,9.17
2017-11-22T20:47:12.046Z,10.80
2017-11-22T20:49:39.913Z,9.13
2017-11-22T20:52:08.783Z,13.30
2017-11-22T20:54:36.551Z,12.20
2017-11-22T20:57:04.392Z,11.60
2017-11-22T20:59:32.196Z,17.07
2017-11-22T21:02:00.519Z,13.33
2017-11-22T21:04:28.339Z,15.30
2017-11-22T21:06:56.037Z,15.00
2017-11-22T21:09:23.786Z,15.30
2017-11-22T21:11:51.603Z,14.07
2017-11-22T21:14:19.394Z,14.70
2017-11-22T21:16:48.222Z,10.87
2017-11-22T21:19:15.934Z,9.93
2017-11-22T21:21:43.626Z,11.23
2017-11-22T21:24:11.410Z,9.00
2017-11-22T21:26:39.286Z,8.60
2017-11-22T21:29:07.065Z,8.10
2017-11-22T21:31:36.042Z,7.77
2017-11-22T21:34:03.901Z,8.10
2017-11-22T21:36:32.189Z,7.43
2017-11-22T21:38:59.889Z,10.83
2017-11-22T21:41:27.604Z,6.80
2017-11-22T21:43:55.415Z,6.33
2017-11-22T21:46:23.170Z,4.13
2017-11-22T21:48:50.872Z,4.20
2017-11-22T21:51:18.626Z,3.97
2017-11-22T21:53:46.326Z,3.50
2017-11-22T21:56:14.162Z,2.97
2017-11-22T21:58:42.041Z,3.23
2017-11-22T22:01:09.762Z,2.60
2017-11-22T22:03:37.559Z,2.03
2017-11-22T22:06:05.272Z,3.67
2017-11-22T22:08:33.001Z,3.83
2017-11-22T22:11:00.764Z,3.23
2017-11-22T22:13:28.462Z,5.37
2017-11-22T22:15:56.260Z,8.07
2017-11-22T22:18:24.040Z,8.80
2017-11-22T22:20:51.739Z,5.00
2017-11-22T22:23:19.507Z,4.80
2017-11-22T22:25:47.253Z,4.93
2017-11-22T22:28:15.172Z,4.37
2017-11-22T22:30:42.975Z,3.63
2017-11-22T22:33:10.693Z,4.10
2017-11-22T22:35:38.464Z,3.40
2017-11-22T22:38:06.169Z,6.07
2017-11-22T22:40:33.874Z,6.20
2017-11-22T22:43:01.609Z,3.10
2017-11-22T22:45:29.380Z,2.33
2017-11-22T22:47:57.091Z,4.43
2017-11-22T22:50:24.825Z,3.10
2017-11-22T22:52:52.609Z,3.27
2017-11-22T22:55:20.320Z,3.40
2017-11-22T22:57:48.079Z,2.90
2017-11-22T23:00:15.851Z,4.20
2017-11-22T23:02:43.552Z,2.57
2017-11-22T23:05:11.400Z,4.10
2017-11-22T23:07:39.087Z,3.67
2017-11-22T23:10:06.782Z,2.60
2017-11-22T23:12:34.569Z,4.60
2017-11-22T23:15:02.259Z,2.30
2017-11-22T23:17:29.970Z,3.40
2017-11-22T23:19:57.714Z,3.67
2017-11-22T23:22:25.400Z,3.70
2017-11-22T23:24:53.074Z,2.90
2017-11-22T23:27:20.801Z,3.63
2017-11-22T23:29:48.490Z,2.77
2017-11-22T23:32:16.246Z,4.80
2017-11-22T23:34:44.052Z,7.60
2017-11-22T23:37:11.921Z,5.83
2017-11-22T23:39:39.674Z,7.43
2017-11-22T23:42:07.445Z,7.27
2017-11-22T23:44:35.135Z,8.13
2017-11-22T23:47:02.879Z,7.93
2017-11-22T23:49:30.627Z,6.80
2017-11-22T23:51:58.443Z,7.20
2017-11-22T23:54:26.152Z,6.13
2017-11-22T23:56:53.867Z,6.07
2017-11-22T23:59:21.657Z,6.20
